createdAt,value
2022-08-19T00:01:58.987Z,54.26
2022-08-19T00:04:30.245Z,53.70
2022-08-19T00:06:58.628Z,53.53
2022-08-19T00:09:26.746Z,53.34
2022-08-19T00:11:56.541Z,53.52
2022-08-19T00:14:25.893Z,53.80
2022-08-19T00:16:55.500Z,53.19
2022-08-19T00:19:24.477Z,52.94
2022-08-19T00:21:52.424Z,53.13
2022-08-19T00:24:19.915Z,52.38
2022-08-19T00:26:51.454Z,51.87
2022-08-19T00:29:21.206Z,52.01
2022-08-19T00:31:48.694Z,51.97
2022-08-19T00:37:09.272Z,52.24
2022-08-19T00:39:56.712Z,52.73
2022-08-19T00:42:24.354Z,51.91
2022-08-19T00:44:51.713Z,52.21
2022-08-19T00:47:18.907Z,52.24
2022-08-19T00:52:49.225Z,50.57
2022-08-19T00:55:22.866Z,51.27
2022-08-19T00:57:56.380Z,50.00
2022-08-19T01:00:25.406Z,51.01
2022-08-19T01:02:53.484Z,50.07
2022-08-19T01:05:29.673Z,50.02
2022-08-19T01:07:59.714Z,50.10
2022-08-19T01:13:26.257Z,50.53
2022-08-19T01:15:58.409Z,50.97
2022-08-19T01:18:27.433Z,52.21
2022-08-19T01:20:59.012Z,52.34
2022-08-19T01:23:43.441Z,52.52
2022-08-19T01:26:20.028Z,51.57
2022-08-19T01:28:58.339Z,51.67
2022-08-19T01:31:33.112Z,51.47
2022-08-19T01:34:04.555Z,51.78
2022-08-19T01:36:36.169Z,52.25
2022-08-19T01:39:08.067Z,51.95
2022-08-19T01:41:35.570Z,52.56
2022-08-19T01:44:17.654Z,52.83
2022-08-19T01:46:49.222Z,52.48
2022-08-19T01:49:18.728Z,52.75
2022-08-19T01:51:46.293Z,52.45
2022-08-19T01:54:22.900Z,53.35
2022-08-19T01:57:00.452Z,53.84
2022-08-19T01:59:52.668Z,53.55
2022-08-19T02:02:19.809Z,53.83
2022-08-19T02:04:47.004Z,53.68
2022-08-19T02:07:14.310Z,53.43
2022-08-19T02:09:41.542Z,53.36
2022-08-19T02:12:09.969Z,53.27
2022-08-19T02:14:37.815Z,53.79
2022-08-19T02:17:05.190Z,53.54
2022-08-19T02:19:33.516Z,53.48
2022-08-19T02:22:01.149Z,54.18
2022-08-19T02:24:28.876Z,54.25
2022-08-19T02:26:56.454Z,54.47
2022-08-19T02:29:23.775Z,54.77
2022-08-19T02:31:51.275Z,55.18
2022-08-19T02:34:18.509Z,55.05
2022-08-19T02:36:45.682Z,54.41
2022-08-19T02:39:19.929Z,54.78
2022-08-19T02:41:47.049Z,54.46
2022-08-19T02:44:29.132Z,55.09
2022-08-19T02:46:58.731Z,55.26
2022-08-19T02:49:25.831Z,54.94
2022-08-19T02:51:53.035Z,54.98
2022-08-19T02:54:20.192Z,55.07
2022-08-19T02:56:47.589Z,54.53
2022-08-19T02:59:14.790Z,54.60
2022-08-19T03:01:46.746Z,53.90
2022-08-19T03:04:16.631Z,54.18
2022-08-19T03:06:45.695Z,53.67
2022-08-19T03:09:14.072Z,54.54
2022-08-19T03:11:41.653Z,53.56
2022-08-19T03:14:10.428Z,54.62
2022-08-19T03:16:49.727Z,53.84
2022-08-19T03:19:19.343Z,54.13
2022-08-19T03:21:46.961Z,54.28
2022-08-19T03:24:15.238Z,55.11
2022-08-19T03:26:58.721Z,54.51
2022-08-19T03:29:32.629Z,54.97
2022-08-19T03:32:01.942Z,54.57
2022-08-19T03:34:38.252Z,54.65
2022-08-19T03:37:08.310Z,54.92
2022-08-19T03:39:38.125Z,55.47
2022-08-19T03:42:38.531Z,55.79
2022-08-19T03:44:53.876Z,55.64
2022-08-19T03:47:21.061Z,55.68
2022-08-19T03:49:48.275Z,56.45
2022-08-19T03:52:15.424Z,56.42
2022-08-19T03:54:43.000Z,56.42
2022-08-19T03:57:10.184Z,56.97
2022-08-19T03:59:38.283Z,57.15
2022-08-19T04:02:10.269Z,56.43
2022-08-19T04:04:43.994Z,57.79
2022-08-19T04:07:16.237Z,56.63
2022-08-19T04:09:43.602Z,56.81
2022-08-19T04:12:10.749Z,57.43
2022-08-19T04:14:37.928Z,58.51
2022-08-19T04:17:08.025Z,58.58
2022-08-19T04:19:39.593Z,57.74
2022-08-19T04:22:07.778Z,57.94
2022-08-19T04:24:35.901Z,57.51
2022-08-19T04:27:03.896Z,57.73
2022-08-19T04:29:31.312Z,56.97
2022-08-19T04:31:59.580Z,57.05
2022-08-19T04:34:29.331Z,56.94
2022-08-19T04:36:58.913Z,59.13
2022-08-19T04:39:49.626Z,58.52
2022-08-19T04:42:37.603Z,57.48
2022-08-19T04:45:09.417Z,54.96
2022-08-19T04:47:48.282Z,54.99
2022-08-19T04:50:27.149Z,57.31
2022-08-19T04:52:54.712Z,54.86
2022-08-19T04:55:22.112Z,54.17
2022-08-19T04:57:49.332Z,54.30
2022-08-19T05:00:16.566Z,55.52
2022-08-19T05:02:44.026Z,54.31
2022-08-19T05:05:11.597Z,53.83
2022-08-19T05:07:39.152Z,53.90
2022-08-19T05:10:07.550Z,55.01
2022-08-19T05:12:35.044Z,53.27
2022-08-19T05:15:04.197Z,52.85
2022-08-19T05:17:37.545Z,52.72
2022-08-19T05:20:26.279Z,53.89
2022-08-19T05:22:53.874Z,53.59
2022-08-19T05:25:22.214Z,52.76
2022-08-19T05:27:52.961Z,52.74
2022-08-19T05:30:24.410Z,53.37
2022-08-19T05:33:11.117Z,54.15
2022-08-19T05:35:40.178Z,52.87
2022-08-19T05:38:11.966Z,50.73
2022-08-19T05:40:39.949Z,50.21
2022-08-19T05:43:09.047Z,48.74
2022-08-19T05:45:41.450Z,49.18
2022-08-19T05:48:12.150Z,47.65
2022-08-19T05:50:41.213Z,48.95
2022-08-19T05:53:09.940Z,48.60
2022-08-19T05:55:39.434Z,47.94
2022-08-19T05:58:08.564Z,47.42
2022-08-19T06:00:37.895Z,44.59
2022-08-19T06:03:11.884Z,43.47
2022-08-19T06:05:50.386Z,42.25
2022-08-19T06:08:19.636Z,41.66
2022-08-19T06:10:46.940Z,42.48
2022-08-19T06:13:39.616Z,41.91
2022-08-19T06:16:06.912Z,42.52
2022-08-19T06:18:34.435Z,41.59
2022-08-19T06:21:04.943Z,40.41
2022-08-19T06:23:32.049Z,40.11
2022-08-19T06:25:59.226Z,39.06
2022-08-19T06:28:26.371Z,39.08
2022-08-19T06:30:53.568Z,38.97
2022-08-19T06:33:20.652Z,39.74
2022-08-19T06:35:47.968Z,40.64
2022-08-19T06:38:18.338Z,37.55
2022-08-19T06:40:45.494Z,37.06
2022-08-19T06:43:12.601Z,35.87
2022-08-19T06:45:41.365Z,36.13
2022-08-19T06:48:08.499Z,35.82
2022-08-19T06:50:36.728Z,34.92
2022-08-19T06:53:06.931Z,35.43
2022-08-19T06:55:34.042Z,35.58
2022-08-19T06:58:05.190Z,35.28
2022-08-19T07:00:32.976Z,34.34
2022-08-19T07:03:25.960Z,34.35
2022-08-19T07:05:53.797Z,33.75
2022-08-19T07:08:20.971Z,32.92
2022-08-19T07:10:50.091Z,31.81
2022-08-19T07:13:17.248Z,32.15
2022-08-19T07:15:45.892Z,31.90
2022-08-19T07:18:13.327Z,31.75
2022-08-19T07:20:42.058Z,32.32
2022-08-19T07:23:10.022Z,33.91
2022-08-19T07:25:43.569Z,35.33
2022-08-19T07:28:24.478Z,32.50
2022-08-19T07:30:53.516Z,33.23
2022-08-19T07:33:20.863Z,31.62
2022-08-19T07:35:48.497Z,31.53
2022-08-19T07:38:17.107Z,31.53
2022-08-19T07:40:47.132Z,31.65
2022-08-19T07:43:17.771Z,31.36
2022-08-19T07:45:45.979Z,31.17
2022-08-19T07:48:13.508Z,30.65
2022-08-19T07:50:41.229Z,31.55
2022-08-19T07:56:04.601Z,30.83
2022-08-19T07:58:34.190Z,30.83
2022-08-19T08:01:01.548Z,29.55
2022-08-19T08:03:49.014Z,29.48
2022-08-19T08:06:35.749Z,29.97
2022-08-19T08:09:16.865Z,27.77
2022-08-19T08:12:32.517Z,25.78
2022-08-19T08:14:56.752Z,26.56
2022-08-19T08:17:31.118Z,26.99
2022-08-19T08:20:15.077Z,24.92
2022-08-19T08:23:05.818Z,25.96
2022-08-19T08:25:34.443Z,24.45
2022-08-19T08:28:03.789Z,24.08
2022-08-19T08:30:33.883Z,23.56
2022-08-19T08:33:02.675Z,23.02
2022-08-19T08:35:30.044Z,21.62
2022-08-19T08:37:57.686Z,21.65
2022-08-19T08:40:41.096Z,21.94
2022-08-19T08:43:14.915Z,21.10
2022-08-19T08:46:12.239Z,21.55
2022-08-19T08:48:47.456Z,22.32
2022-08-19T08:54:21.572Z,22.04
2022-08-19T08:56:51.545Z,21.55
2022-08-19T08:59:35.647Z,22.38
2022-08-19T09:02:06.003Z,22.18
2022-08-19T09:04:36.010Z,20.87
2022-08-19T09:07:34.785Z,21.38
2022-08-19T09:10:35.776Z,21.13
2022-08-19T09:13:31.797Z,20.85
2022-08-19T09:16:13.229Z,21.86
2022-08-19T09:18:54.588Z,21.87
2022-08-19T09:21:33.438Z,20.79
2022-08-19T09:24:03.535Z,21.94
2022-08-19T09:26:47.152Z,22.51
2022-08-19T09:29:16.403Z,23.43
2022-08-19T09:34:37.880Z,24.01
2022-08-19T09:39:58.035Z,25.68
2022-08-19T09:42:30.595Z,25.32
2022-08-19T09:45:05.165Z,24.93
2022-08-19T09:47:40.598Z,24.68
2022-08-19T09:50:11.924Z,24.83
2022-08-19T09:52:55.116Z,25.53
2022-08-19T09:55:31.323Z,26.52
2022-08-19T09:58:02.737Z,25.43
2022-08-19T10:00:31.251Z,26.09
2022-08-19T10:02:58.703Z,26.59
2022-08-19T10:05:44.695Z,25.75
2022-08-19T10:08:22.696Z,25.05
2022-08-19T10:10:54.434Z,25.37
2022-08-19T10:13:24.624Z,25.65
2022-08-19T10:15:53.212Z,25.35
2022-08-19T10:18:22.209Z,25.94
2022-08-19T10:20:52.705Z,24.78
2022-08-19T10:23:22.258Z,25.40
2022-08-19T10:25:50.633Z,26.06
2022-08-19T10:28:19.321Z,26.02
2022-08-19T10:30:47.690Z,26.72
2022-08-19T10:33:16.149Z,27.22
2022-08-19T10:36:08.297Z,26.65
2022-08-19T10:38:35.580Z,27.71
2022-08-19T10:41:30.302Z,27.68
2022-08-19T10:44:04.129Z,28.42
2022-08-19T10:46:34.035Z,27.88
2022-08-19T10:49:02.687Z,28.91
2022-08-19T10:51:48.953Z,28.77
2022-08-19T10:54:17.553Z,28.60
2022-08-19T10:56:58.506Z,29.17
2022-08-19T10:59:33.806Z,28.55
2022-08-19T11:02:06.074Z,29.50
2022-08-19T11:04:34.213Z,28.48
2022-08-19T11:07:06.613Z,28.55
2022-08-19T11:09:39.987Z,28.94
2022-08-19T11:12:08.571Z,29.47
2022-08-19T11:14:35.737Z,28.83
2022-08-19T11:17:04.868Z,28.78
2022-08-19T11:19:32.128Z,29.54
2022-08-19T11:22:02.326Z,28.25
2022-08-19T11:24:32.019Z,28.61
2022-08-19T11:27:07.045Z,29.31
2022-08-19T11:29:35.364Z,28.81
2022-08-19T11:32:07.860Z,28.37
2022-08-19T11:34:36.384Z,28.57
2022-08-19T11:37:04.643Z,27.33
2022-08-19T11:39:32.957Z,27.93
2022-08-19T11:42:00.809Z,27.49
2022-08-19T11:44:31.343Z,27.10
2022-08-19T11:46:58.701Z,27.11
2022-08-19T11:49:37.146Z,27.06
2022-08-19T11:52:04.339Z,26.62
2022-08-19T11:54:31.949Z,26.47
2022-08-19T11:56:59.056Z,26.99
2022-08-19T11:59:27.838Z,26.94
2022-08-19T12:01:56.688Z,27.01
2022-08-19T12:04:24.231Z,26.76
2022-08-19T12:06:51.543Z,27.35
2022-08-19T12:09:18.763Z,27.02
2022-08-19T12:11:46.805Z,26.58
2022-08-19T12:14:15.206Z,28.94
2022-08-19T12:16:50.431Z,29.81
2022-08-19T12:19:22.105Z,30.88
2022-08-19T12:21:51.174Z,31.12
2022-08-19T12:24:24.152Z,32.24
2022-08-19T12:26:53.468Z,32.59
2022-08-19T12:29:23.825Z,33.06
2022-08-19T12:31:52.363Z,34.14
2022-08-19T12:34:21.057Z,33.75
2022-08-19T12:36:50.383Z,33.77
2022-08-19T12:39:17.845Z,33.77
2022-08-19T12:41:51.388Z,33.44
2022-08-19T12:44:31.889Z,34.36
2022-08-19T12:47:00.918Z,33.94
2022-08-19T12:49:53.238Z,32.80
2022-08-19T12:52:26.802Z,32.79
2022-08-19T12:54:56.680Z,32.15
2022-08-19T12:57:31.859Z,31.81
2022-08-19T13:00:13.567Z,32.45
2022-08-19T13:02:42.803Z,32.11
2022-08-19T13:05:12.995Z,32.47
2022-08-19T13:07:41.570Z,32.87
2022-08-19T13:10:12.102Z,32.73
2022-08-19T13:12:40.217Z,33.66
2022-08-19T13:15:10.702Z,34.26
2022-08-19T13:17:40.180Z,34.54
2022-08-19T13:20:09.407Z,35.87
2022-08-19T13:22:37.557Z,36.10
2022-08-19T13:25:07.001Z,36.59
2022-08-19T13:27:34.303Z,36.92
2022-08-19T13:30:20.780Z,37.22
2022-08-19T13:33:06.397Z,36.79
2022-08-19T13:35:33.584Z,36.82
2022-08-19T13:38:01.792Z,35.91
2022-08-19T13:40:30.145Z,35.69
2022-08-19T13:42:57.263Z,35.31
2022-08-19T13:45:27.520Z,35.48
2022-08-19T13:47:59.513Z,34.87
2022-08-19T13:50:32.182Z,35.09
2022-08-19T13:52:59.393Z,34.70
2022-08-19T13:55:27.948Z,34.54
2022-08-19T13:57:57.999Z,34.11
2022-08-19T14:00:27.461Z,34.06
2022-08-19T14:02:56.978Z,34.48
2022-08-19T14:05:25.702Z,34.15
2022-08-19T14:07:53.503Z,33.69
2022-08-19T14:10:22.482Z,33.66
2022-08-19T14:12:50.390Z,34.97
2022-08-19T14:15:17.591Z,33.71
2022-08-19T14:17:47.624Z,34.58
2022-08-19T14:20:17.752Z,33.96
2022-08-19T14:22:47.215Z,34.76
2022-08-19T14:25:21.433Z,34.68
2022-08-19T14:27:49.812Z,35.27
2022-08-19T14:30:20.965Z,35.10
2022-08-19T14:32:48.561Z,35.55
2022-08-19T14:35:17.044Z,35.53
2022-08-19T14:37:46.126Z,35.92
2022-08-19T14:40:17.515Z,36.27
2022-08-19T14:42:45.255Z,36.88
2022-08-19T14:45:12.919Z,36.56
2022-08-19T14:47:40.868Z,37.72
2022-08-19T14:50:18.198Z,37.83
2022-08-19T14:52:48.553Z,37.79
2022-08-19T14:55:17.190Z,37.64
2022-08-19T14:57:45.475Z,39.08
2022-08-19T15:00:16.466Z,37.91
2022-08-19T15:02:47.187Z,38.22
2022-08-19T15:05:14.310Z,38.34
2022-08-19T15:07:41.969Z,38.44
2022-08-19T15:10:10.607Z,38.82
2022-08-19T15:12:41.108Z,38.44
2022-08-19T15:15:13.776Z,38.56
2022-08-19T15:17:47.345Z,38.71
2022-08-19T15:20:17.690Z,38.67
2022-08-19T15:22:45.055Z,38.40
2022-08-19T15:25:14.931Z,38.71
2022-08-19T15:27:42.280Z,38.91
2022-08-19T15:30:11.271Z,39.13
2022-08-19T15:32:39.638Z,39.25
2022-08-19T15:35:07.862Z,39.10
2022-08-19T15:37:37.248Z,39.45
2022-08-19T15:40:08.980Z,39.51
2022-08-19T15:42:37.965Z,39.72
2022-08-19T15:45:06.721Z,40.04
2022-08-19T15:47:34.612Z,39.58
2022-08-19T15:50:10.930Z,39.54
2022-08-19T15:52:50.477Z,39.51
2022-08-19T15:55:33.426Z,39.82
2022-08-19T15:58:28.704Z,39.75
2022-08-19T16:01:24.643Z,39.81
2022-08-19T16:04:15.829Z,39.80
2022-08-19T16:06:53.176Z,40.51
2022-08-19T16:09:27.615Z,40.51
2022-08-19T16:12:05.957Z,40.69
2022-08-19T16:14:35.437Z,40.62
2022-08-19T16:17:03.138Z,41.04
2022-08-19T16:19:32.444Z,40.86
2022-08-19T16:21:59.603Z,40.99
2022-08-19T16:24:28.498Z,40.67
2022-08-19T16:26:56.636Z,40.88
2022-08-19T16:29:34.194Z,44.21
2022-08-19T16:32:10.617Z,46.15
2022-08-19T16:34:40.135Z,48.88
2022-08-19T16:37:08.012Z,51.58
2022-08-19T16:39:35.281Z,50.69
2022-08-19T16:42:03.345Z,59.59
2022-08-19T16:44:31.835Z,62.91
2022-08-19T16:47:00.025Z,61.67
2022-08-19T16:49:53.847Z,61.70
2022-08-19T16:52:17.199Z,62.50
2022-08-19T16:54:44.813Z,62.87
2022-08-19T16:57:12.905Z,61.45
2022-08-19T16:59:42.490Z,59.15
2022-08-19T17:02:20.129Z,59.32
2022-08-19T17:04:57.623Z,61.22
2022-08-19T17:07:28.046Z,57.74
2022-08-19T17:09:56.496Z,55.58
2022-08-19T17:12:30.213Z,55.11
2022-08-19T17:14:58.479Z,54.94
2022-08-19T17:17:28.937Z,54.64
2022-08-19T17:19:58.654Z,54.42
2022-08-19T17:22:26.018Z,54.96
2022-08-19T17:24:56.198Z,55.47
2022-08-19T17:27:32.442Z,54.64
2022-08-19T17:30:02.608Z,56.01
2022-08-19T17:32:33.250Z,54.74
2022-08-19T17:35:00.687Z,55.26
2022-08-19T17:37:28.239Z,57.11
2022-08-19T17:42:47.403Z,58.31
2022-08-19T17:45:14.933Z,57.46
2022-08-19T17:47:42.066Z,55.60
2022-08-19T17:50:10.702Z,56.94
2022-08-19T17:52:38.028Z,54.64
2022-08-19T17:55:07.265Z,55.69
2022-08-19T17:57:34.465Z,58.11
2022-08-19T18:00:05.502Z,55.72
2022-08-19T18:02:48.703Z,55.66
2022-08-19T18:05:20.308Z,54.94
2022-08-19T18:07:52.174Z,57.05
2022-08-19T18:10:23.811Z,57.60
2022-08-19T18:13:02.143Z,58.67
2022-08-19T18:15:44.821Z,59.24
2022-08-19T18:18:14.978Z,58.56
2022-08-19T18:20:43.591Z,58.00
2022-08-19T18:23:41.327Z,59.12
2022-08-19T18:26:02.383Z,57.72
2022-08-19T18:28:30.339Z,57.34
2022-08-19T18:30:57.534Z,55.45
2022-08-19T18:33:25.608Z,56.22
2022-08-19T18:35:53.218Z,55.46
2022-08-19T18:38:40.657Z,55.89
2022-08-19T18:41:27.383Z,56.69
2022-08-19T18:44:13.008Z,56.34
2022-08-19T18:46:59.395Z,58.38
2022-08-19T18:49:29.248Z,58.15
2022-08-19T18:51:56.850Z,58.80
2022-08-19T18:54:25.515Z,62.00
2022-08-19T18:56:55.728Z,61.14
2022-08-19T18:59:28.046Z,59.95
2022-08-19T19:01:58.214Z,60.91
2022-08-19T19:04:31.469Z,61.30
2022-08-19T19:07:03.375Z,65.61
2022-08-19T19:09:30.637Z,68.32
2022-08-19T19:12:00.388Z,62.64
2022-08-19T19:14:50.458Z,65.49
2022-08-19T19:17:18.582Z,66.83
2022-08-19T19:19:45.837Z,68.94
2022-08-19T19:22:17.179Z,71.44
2022-08-19T19:24:44.540Z,73.69
2022-08-19T19:27:13.620Z,69.02
2022-08-19T19:29:42.076Z,69.40
2022-08-19T19:32:16.614Z,67.55
2022-08-19T19:34:44.051Z,69.87
2022-08-19T19:37:11.951Z,69.91
2022-08-19T19:39:46.019Z,69.68
2022-08-19T19:42:19.756Z,70.56
2022-08-19T19:44:50.275Z,70.24
2022-08-19T19:47:19.245Z,73.12
2022-08-19T19:50:13.849Z,74.98
2022-08-19T19:52:39.820Z,72.33
2022-08-19T19:55:09.243Z,74.12
2022-08-19T19:57:39.711Z,74.28
2022-08-19T20:00:09.915Z,74.27
2022-08-19T20:02:37.956Z,76.38
2022-08-19T20:05:06.553Z,76.06
2022-08-19T20:07:52.063Z,77.15
2022-08-19T20:10:19.937Z,76.61
2022-08-19T20:12:49.183Z,76.88
2022-08-19T20:15:16.323Z,78.34
2022-08-19T20:17:44.298Z,76.96
2022-08-19T20:20:16.810Z,76.51
2022-08-19T20:22:45.903Z,77.51
2022-08-19T20:25:16.855Z,75.47
2022-08-19T20:27:44.303Z,75.93
2022-08-19T20:30:19.213Z,76.48
2022-08-19T20:32:48.104Z,76.28
2022-08-19T20:35:18.722Z,76.37
2022-08-19T20:37:46.633Z,75.98
2022-08-19T20:40:16.493Z,76.27
2022-08-19T20:42:50.715Z,75.47
2022-08-19T20:45:32.784Z,77.24
2022-08-19T20:48:03.358Z,76.99
2022-08-19T20:50:34.946Z,76.03
2022-08-19T20:53:09.819Z,77.00
2022-08-19T20:58:28.838Z,77.96
2022-08-19T21:00:59.595Z,77.95
2022-08-19T21:03:32.079Z,78.07
2022-08-19T21:05:59.531Z,79.18
2022-08-19T21:08:27.679Z,78.34
2022-08-19T21:10:57.293Z,78.02
2022-08-19T21:13:25.459Z,78.89
2022-08-19T21:15:53.744Z,78.82
2022-08-19T21:18:22.749Z,78.16
2022-08-19T21:20:50.723Z,78.68
2022-08-19T21:23:22.715Z,78.00
2022-08-19T21:25:54.454Z,78.25
2022-08-19T21:28:35.715Z,78.63
2022-08-19T21:31:06.501Z,79.18
2022-08-19T21:33:33.942Z,78.18
2022-08-19T21:36:05.596Z,78.90
2022-08-19T21:38:32.853Z,79.51
2022-08-19T21:41:04.253Z,79.78
2022-08-19T21:43:37.546Z,79.46
2022-08-19T21:46:06.595Z,79.71
2022-08-19T21:48:33.776Z,79.63
2022-08-19T21:51:01.127Z,80.75
2022-08-19T21:53:31.499Z,80.60
2022-08-19T21:56:06.778Z,79.94
2022-08-19T21:58:36.403Z,80.26
2022-08-19T22:01:06.379Z,79.89
2022-08-19T22:03:38.469Z,79.44
2022-08-19T22:06:06.528Z,79.39
2022-08-19T22:08:33.696Z,79.52
2022-08-19T22:11:02.575Z,79.03
2022-08-19T22:13:35.923Z,78.90
2022-08-19T22:16:06.592Z,78.40
2022-08-19T22:18:35.504Z,79.07
2022-08-19T22:21:07.250Z,79.97
2022-08-19T22:23:36.862Z,80.06
2022-08-19T22:26:04.026Z,79.71
2022-08-19T22:28:31.159Z,79.94
2022-08-19T22:30:58.462Z,79.95
2022-08-19T22:33:27.785Z,78.88
2022-08-19T22:35:55.215Z,79.07
2022-08-19T22:38:23.131Z,78.17
2022-08-19T22:40:52.499Z,78.98
2022-08-19T22:43:23.059Z,78.79
2022-08-19T22:45:52.188Z,79.05
2022-08-19T22:48:21.632Z,78.93
2022-08-19T22:51:08.684Z,80.65
2022-08-19T22:53:39.718Z,79.64
2022-08-19T22:56:14.486Z,79.55
2022-08-19T22:58:43.676Z,82.51
2022-08-19T23:01:27.352Z,82.17
2022-08-19T23:03:59.308Z,82.63
2022-08-19T23:06:33.503Z,83.97
2022-08-19T23:09:07.421Z,85.16
2022-08-19T23:11:41.940Z,84.02
2022-08-19T23:14:11.173Z,84.42
2022-08-19T23:16:38.676Z,85.56
2022-08-19T23:19:07.358Z,86.17
2022-08-19T23:21:36.298Z,85.69
2022-08-19T23:24:04.051Z,86.03
2022-08-19T23:26:35.546Z,86.59
2022-08-19T23:29:24.012Z,86.54
2022-08-19T23:31:51.505Z,86.39
2022-08-19T23:34:18.728Z,85.92
2022-08-19T23:36:46.354Z,85.92
2022-08-19T23:39:13.491Z,85.94
2022-08-19T23:41:40.681Z,85.64
2022-08-19T23:44:14.421Z,84.97
2022-08-19T23:46:55.203Z,85.13
2022-08-19T23:49:24.586Z,84.13
2022-08-19T23:51:52.657Z,83.97
2022-08-19T23:54:19.911Z,84.78
2022-08-19T23:56:47.040Z,85.53
2022-08-19T23:59:14.189Z,85.90
